createdAt,value
2019-01-09T00:01:20.592Z,2.12
2019-01-09T00:03:49.312Z,2.50
2019-01-09T00:06:18.032Z,1.90
2019-01-09T00:08:46.788Z,2.02
2019-01-09T00:11:15.507Z,2.25
2019-01-09T00:13:44.325Z,2.00
2019-01-09T00:16:13.072Z,2.00
2019-01-09T00:18:41.801Z,2.05
2019-01-09T00:21:10.564Z,2.02
2019-01-09T00:23:39.283Z,2.10
2019-01-09T00:26:08.036Z,1.80
2019-01-09T00:28:36.767Z,2.00
2019-01-09T00:31:05.525Z,2.00
2019-01-09T00:33:34.288Z,2.30
2019-01-09T00:36:03.039Z,2.08
2019-01-09T00:38:31.764Z,2.12
2019-01-09T00:41:00.483Z,2.08
2019-01-09T00:43:29.240Z,1.77
2019-01-09T00:45:58.132Z,2.08
2019-01-09T00:48:26.888Z,1.90
2019-01-09T00:50:55.681Z,2.00
2019-01-09T00:53:24.431Z,1.87
2019-01-09T00:55:53.156Z,1.92
2019-01-09T00:58:21.911Z,2.12
2019-01-09T01:00:50.634Z,2.02
2019-01-09T01:03:43.360Z,2.10
2019-01-09T01:06:29.920Z,2.00
2019-01-09T01:09:21.287Z,1.80
2019-01-09T01:12:09.363Z,1.92
2019-01-09T01:14:41.056Z,2.08
2019-01-09T01:17:27.760Z,1.87
2019-01-09T01:20:28.164Z,2.08
2019-01-09T01:23:05.847Z,1.97
2019-01-09T01:25:43.522Z,2.08
2019-01-09T01:28:39.491Z,1.90
2019-01-09T01:31:35.529Z,2.40
2019-01-09T01:34:09.866Z,2.20
2019-01-09T01:36:44.110Z,2.15
2019-01-09T01:39:44.672Z,2.80
2019-01-09T01:42:31.555Z,1.82
2019-01-09T01:45:03.328Z,2.00
2019-01-09T01:47:51.744Z,2.25
2019-01-09T01:50:29.199Z,2.45
2019-01-09T01:53:06.404Z,2.20
2019-01-09T01:55:49.969Z,2.20
2019-01-09T01:58:42.987Z,2.30
2019-01-09T02:01:29.867Z,2.40
2019-01-09T02:04:25.828Z,2.40
2019-01-09T02:07:08.863Z,2.50
2019-01-09T02:09:55.608Z,2.50
2019-01-09T02:12:30.356Z,2.08
2019-01-09T02:15:22.699Z,2.25
2019-01-09T02:18:00.335Z,1.98
2019-01-09T02:20:32.086Z,2.10
2019-01-09T02:23:27.388Z,2.17
2019-01-09T02:26:05.243Z,2.20
2019-01-09T02:28:45.355Z,2.17
2019-01-09T02:31:28.903Z,2.45
2019-01-09T02:33:57.660Z,2.47
2019-01-09T02:36:27.548Z,2.17
2019-01-09T02:38:56.255Z,2.35
2019-01-09T02:41:24.995Z,2.20
2019-01-09T02:43:53.829Z,2.22
2019-01-09T02:46:22.551Z,2.03
2019-01-09T02:48:51.301Z,2.08
2019-01-09T02:51:20.032Z,2.33
2019-01-09T02:53:48.799Z,2.20
2019-01-09T02:56:17.517Z,2.17
2019-01-09T02:58:46.272Z,2.45
2019-01-09T03:01:15.026Z,2.10
2019-01-09T03:03:43.752Z,2.30
2019-01-09T03:06:12.520Z,2.20
2019-01-09T03:08:41.246Z,2.30
2019-01-09T03:11:09.991Z,2.10
2019-01-09T03:13:38.742Z,2.33
2019-01-09T03:16:07.489Z,2.20
2019-01-09T03:18:36.203Z,2.50
2019-01-09T03:21:04.963Z,2.22
2019-01-09T03:23:33.693Z,2.45
2019-01-09T03:26:02.453Z,2.50
2019-01-09T03:28:31.171Z,2.42
2019-01-09T03:30:59.921Z,2.10
2019-01-09T03:33:28.644Z,2.10
2019-01-09T03:35:57.701Z,2.30
2019-01-09T03:38:26.399Z,2.70
2019-01-09T03:40:55.124Z,2.62
2019-01-09T03:43:23.888Z,2.40
2019-01-09T03:45:52.647Z,2.45
2019-01-09T03:48:21.396Z,2.63
2019-01-09T03:50:50.119Z,2.42
2019-01-09T03:53:18.876Z,2.40
2019-01-09T03:55:47.603Z,2.33
2019-01-09T03:58:16.444Z,2.87
2019-01-09T04:00:45.164Z,2.57
2019-01-09T04:03:13.911Z,2.90
2019-01-09T04:05:42.632Z,2.95
2019-01-09T04:08:11.483Z,2.17
2019-01-09T04:10:40.204Z,2.45
2019-01-09T04:13:08.962Z,2.73
2019-01-09T04:15:37.812Z,2.40
2019-01-09T04:18:06.568Z,1.90
2019-01-09T04:20:35.288Z,1.90
2019-01-09T04:23:04.116Z,1.67
2019-01-09T04:25:32.858Z,1.25
2019-01-09T04:28:01.607Z,1.10
2019-01-09T04:30:30.331Z,1.27
2019-01-09T04:32:59.052Z,1.30
2019-01-09T04:35:27.931Z,0.90
2019-01-09T04:37:56.628Z,1.00
2019-01-09T04:40:25.376Z,1.00
2019-01-09T04:42:54.112Z,1.07
2019-01-09T04:45:22.895Z,0.80
2019-01-09T04:47:51.616Z,0.70
2019-01-09T04:50:20.376Z,0.80
2019-01-09T04:52:49.099Z,0.80
2019-01-09T04:55:17.848Z,0.85
2019-01-09T04:57:46.575Z,1.00
2019-01-09T05:00:15.336Z,0.60
2019-01-09T05:02:44.067Z,0.72
2019-01-09T05:05:12.841Z,0.80
2019-01-09T05:07:41.540Z,0.80
2019-01-09T05:10:10.292Z,0.80
2019-01-09T05:12:39.024Z,0.70
2019-01-09T05:15:07.852Z,0.93
2019-01-09T05:17:36.651Z,0.60
2019-01-09T05:20:06.114Z,0.80
2019-01-09T05:22:34.943Z,0.78
2019-01-09T05:25:03.716Z,0.90
2019-01-09T05:27:32.437Z,0.78
2019-01-09T05:30:01.195Z,1.02
2019-01-09T05:32:29.920Z,0.90
2019-01-09T05:34:58.675Z,1.10
2019-01-09T05:37:27.413Z,1.05
2019-01-09T05:39:56.164Z,1.30
2019-01-09T05:42:25.031Z,1.27
2019-01-09T05:44:53.803Z,1.47
2019-01-09T05:47:22.539Z,1.40
2019-01-09T05:49:51.375Z,1.70
2019-01-09T05:52:20.096Z,2.10
2019-01-09T05:54:48.845Z,1.80
2019-01-09T05:57:17.569Z,1.80
2019-01-09T05:59:46.332Z,1.90
2019-01-09T06:02:15.056Z,2.00
2019-01-09T06:04:46.051Z,1.90
2019-01-09T06:07:18.592Z,2.22
2019-01-09T06:09:46.049Z,2.00
2019-01-09T06:12:14.776Z,2.17
2019-01-09T06:14:45.247Z,2.00
2019-01-09T06:17:14.160Z,2.27
2019-01-09T06:20:02.728Z,2.05
2019-01-09T06:22:31.524Z,1.95
2019-01-09T06:25:02.136Z,1.90
2019-01-09T06:27:30.952Z,2.22
2019-01-09T06:29:59.793Z,1.82
2019-01-09T06:32:28.545Z,1.87
2019-01-09T06:34:57.272Z,1.70
2019-01-09T06:37:27.694Z,1.73
2019-01-09T06:39:56.637Z,1.47
2019-01-09T06:42:25.412Z,1.60
2019-01-09T06:44:54.131Z,1.50
2019-01-09T06:47:22.962Z,1.57
2019-01-09T06:49:51.685Z,1.67
2019-01-09T06:52:20.443Z,1.70
2019-01-09T06:54:49.202Z,2.00
2019-01-09T06:57:17.943Z,1.60
2019-01-09T06:59:46.723Z,1.90
2019-01-09T07:02:15.424Z,2.03
2019-01-09T07:04:44.807Z,2.00
2019-01-09T07:07:36.166Z,1.50
2019-01-09T07:10:09.179Z,1.10
2019-01-09T07:12:38.857Z,1.00
2019-01-09T07:15:11.758Z,1.00
2019-01-09T07:17:39.884Z,1.00
2019-01-09T07:20:08.603Z,0.93
2019-01-09T07:22:38.525Z,0.93
2019-01-09T07:25:07.179Z,1.50
2019-01-09T07:27:35.923Z,1.10
2019-01-09T07:30:06.971Z,1.07
2019-01-09T07:32:35.724Z,1.15
2019-01-09T07:35:05.443Z,1.20
2019-01-09T07:37:34.187Z,1.40
2019-01-09T07:40:03.012Z,1.30
2019-01-09T07:42:31.760Z,1.30
2019-01-09T07:45:00.483Z,1.20
2019-01-09T07:47:29.232Z,1.40
2019-01-09T07:49:57.883Z,1.60
2019-01-09T07:52:26.636Z,1.50
2019-01-09T07:54:55.367Z,1.30
2019-01-09T07:57:24.267Z,1.40
2019-01-09T07:59:53.032Z,1.40
2019-01-09T08:02:21.856Z,1.62
2019-01-09T08:04:50.603Z,1.67
2019-01-09T08:07:19.323Z,1.72
2019-01-09T08:09:48.078Z,1.80
2019-01-09T08:12:16.799Z,1.40
2019-01-09T08:14:45.565Z,1.90
2019-01-09T08:17:14.292Z,1.85
2019-01-09T08:19:43.039Z,2.00
2019-01-09T08:22:11.764Z,1.50
2019-01-09T08:24:40.512Z,1.10
2019-01-09T08:27:09.236Z,1.02
2019-01-09T08:29:38.000Z,1.00
2019-01-09T08:32:06.799Z,1.20
2019-01-09T08:34:35.562Z,1.30
2019-01-09T08:37:04.279Z,1.00
2019-01-09T08:39:33.056Z,1.07
2019-01-09T08:42:01.843Z,0.75
2019-01-09T08:44:30.621Z,0.82
2019-01-09T08:46:59.343Z,0.95
2019-01-09T08:49:28.179Z,0.90
2019-01-09T08:51:56.910Z,1.20
2019-01-09T08:54:25.631Z,0.80
2019-01-09T08:56:54.392Z,0.90
2019-01-09T08:59:23.117Z,1.25
2019-01-09T09:01:51.863Z,1.20
2019-01-09T09:04:20.583Z,1.30
2019-01-09T09:06:49.348Z,1.20
2019-01-09T09:09:18.672Z,1.25
2019-01-09T09:11:47.432Z,1.40
2019-01-09T09:14:16.155Z,1.85
2019-01-09T09:16:44.903Z,1.30
2019-01-09T09:19:15.762Z,1.30
2019-01-09T09:21:44.095Z,1.30
2019-01-09T09:24:12.823Z,1.60
2019-01-09T09:26:41.572Z,1.60
2019-01-09T09:29:10.410Z,2.10
2019-01-09T09:31:39.188Z,2.20
2019-01-09T09:34:07.913Z,2.00
2019-01-09T09:36:36.743Z,2.25
2019-01-09T09:39:08.355Z,2.25
2019-01-09T09:41:37.187Z,2.22
2019-01-09T09:44:05.984Z,2.20
2019-01-09T09:46:34.734Z,2.58
2019-01-09T09:49:03.489Z,2.70
2019-01-09T09:51:32.220Z,2.62
2019-01-09T09:54:00.967Z,2.60
2019-01-09T09:56:29.694Z,2.60
2019-01-09T09:58:58.447Z,2.52
2019-01-09T10:01:27.173Z,2.33
2019-01-09T10:03:55.933Z,2.45
2019-01-09T10:06:24.652Z,2.42
2019-01-09T10:08:53.405Z,2.50
2019-01-09T10:11:22.125Z,2.85
2019-01-09T10:13:50.885Z,2.50
2019-01-09T10:16:19.599Z,2.45
2019-01-09T10:18:48.356Z,2.90
2019-01-09T10:21:17.082Z,2.60
2019-01-09T10:23:45.848Z,2.72
2019-01-09T10:26:14.643Z,2.77
2019-01-09T10:28:43.396Z,3.10
2019-01-09T10:31:12.115Z,3.00
2019-01-09T10:33:40.880Z,2.80
2019-01-09T10:36:09.647Z,3.00
2019-01-09T10:38:38.502Z,3.02
2019-01-09T10:41:07.357Z,2.90
2019-01-09T10:43:36.115Z,2.95
2019-01-09T10:46:05.115Z,2.87
2019-01-09T10:48:33.936Z,2.83
2019-01-09T10:51:02.655Z,2.67
2019-01-09T10:53:31.419Z,2.90
2019-01-09T10:56:00.142Z,2.47
2019-01-09T10:58:28.898Z,2.70
2019-01-09T11:00:57.648Z,2.87
2019-01-09T11:03:26.373Z,2.90
2019-01-09T11:05:55.136Z,2.77
2019-01-09T11:08:23.852Z,2.90
2019-01-09T11:10:52.600Z,3.07
2019-01-09T11:13:21.323Z,2.83
2019-01-09T11:15:50.076Z,3.17
2019-01-09T11:18:18.804Z,2.90
2019-01-09T11:20:47.564Z,2.95
2019-01-09T11:23:16.280Z,3.10
2019-01-09T11:25:45.037Z,3.15
2019-01-09T11:28:13.762Z,3.00
2019-01-09T11:30:42.591Z,3.30
2019-01-09T11:33:11.344Z,3.00
2019-01-09T11:35:40.076Z,3.07
2019-01-09T11:38:08.829Z,2.98
2019-01-09T11:40:37.551Z,3.15
2019-01-09T11:43:06.320Z,2.70
2019-01-09T11:45:35.040Z,2.85
2019-01-09T11:48:03.800Z,2.60
2019-01-09T11:50:32.524Z,2.90
2019-01-09T11:53:01.281Z,2.80
2019-01-09T11:55:30.013Z,2.55
2019-01-09T11:57:58.759Z,2.85
2019-01-09T12:00:28.479Z,2.72
2019-01-09T12:02:57.233Z,2.70
2019-01-09T12:05:26.118Z,2.72
2019-01-09T12:07:54.889Z,2.70
2019-01-09T12:10:29.939Z,2.50
2019-01-09T12:12:55.260Z,2.80
2019-01-09T12:15:24.047Z,2.50
2019-01-09T12:17:52.773Z,2.45
2019-01-09T12:20:21.725Z,2.72
2019-01-09T12:22:50.450Z,2.85
2019-01-09T12:25:20.084Z,2.87
2019-01-09T12:27:48.856Z,3.20
2019-01-09T12:30:23.336Z,3.40
2019-01-09T12:32:52.063Z,2.87
2019-01-09T12:35:21.019Z,3.05
2019-01-09T12:37:50.339Z,2.70
2019-01-09T12:40:19.101Z,2.92
2019-01-09T12:42:48.151Z,2.10
2019-01-09T12:45:17.675Z,2.00
2019-01-09T12:47:46.401Z,2.33
2019-01-09T12:50:25.127Z,2.15
2019-01-09T12:52:53.946Z,2.47
2019-01-09T12:55:22.845Z,2.50
2019-01-09T12:57:51.655Z,2.50
2019-01-09T13:00:26.079Z,2.70
2019-01-09T13:02:54.798Z,2.70
2019-01-09T13:05:23.919Z,2.67
2019-01-09T13:07:52.648Z,2.40
2019-01-09T13:10:21.602Z,2.35
2019-01-09T13:12:50.365Z,2.85
2019-01-09T13:15:19.087Z,2.72
2019-01-09T13:17:47.848Z,2.13
2019-01-09T13:20:17.404Z,2.10
2019-01-09T13:22:46.141Z,2.30
2019-01-09T13:25:15.914Z,2.20
2019-01-09T13:27:44.859Z,2.67
2019-01-09T13:30:16.088Z,2.80
2019-01-09T13:32:44.952Z,2.60
2019-01-09T13:35:13.775Z,2.55
2019-01-09T13:37:42.586Z,2.60
2019-01-09T13:40:18.712Z,2.80
2019-01-09T13:42:47.886Z,3.10
2019-01-09T13:45:18.333Z,3.00
2019-01-09T13:47:47.367Z,2.62
2019-01-09T13:50:17.929Z,2.80
2019-01-09T13:52:46.659Z,2.60
2019-01-09T13:55:16.715Z,2.55
2019-01-09T13:57:45.717Z,2.67
2019-01-09T14:00:16.907Z,2.50
2019-01-09T14:02:45.658Z,2.80
2019-01-09T14:05:14.879Z,2.40
2019-01-09T14:07:43.860Z,3.02
2019-01-09T14:10:18.161Z,3.02
2019-01-09T14:12:46.912Z,2.60
2019-01-09T14:15:17.940Z,2.72
2019-01-09T14:17:46.694Z,2.70
2019-01-09T14:20:15.500Z,3.08
2019-01-09T14:22:46.601Z,2.80
2019-01-09T14:25:16.635Z,3.10
2019-01-09T14:27:45.689Z,3.30
2019-01-09T14:30:19.550Z,2.65
2019-01-09T14:32:48.302Z,3.20
2019-01-09T14:35:17.035Z,3.20
2019-01-09T14:37:45.780Z,2.85
2019-01-09T14:40:18.954Z,3.20
2019-01-09T14:42:47.701Z,2.75
2019-01-09T14:45:17.433Z,2.47
2019-01-09T14:47:46.288Z,2.20
2019-01-09T14:50:17.723Z,2.80
2019-01-09T14:52:46.479Z,2.67
2019-01-09T14:55:15.899Z,2.50
2019-01-09T14:57:45.163Z,2.52
2019-01-09T15:00:22.349Z,2.75
2019-01-09T15:02:52.440Z,2.60
2019-01-09T15:05:21.405Z,2.87
2019-01-09T15:07:50.266Z,2.73
2019-01-09T15:10:24.177Z,2.67
2019-01-09T15:12:53.340Z,2.70
2019-01-09T15:15:22.171Z,2.93
2019-01-09T15:17:50.928Z,2.80
2019-01-09T15:20:20.940Z,2.47
2019-01-09T15:22:49.698Z,2.52
2019-01-09T15:25:19.333Z,2.70
2019-01-09T15:27:48.187Z,3.00
2019-01-09T15:30:22.815Z,3.17
2019-01-09T15:32:51.672Z,2.83
2019-01-09T15:35:20.539Z,2.85
2019-01-09T15:37:49.493Z,2.85
2019-01-09T15:40:28.882Z,3.17
2019-01-09T15:42:57.939Z,3.58
2019-01-09T15:45:27.020Z,3.95
2019-01-09T15:47:55.836Z,4.05
2019-01-09T15:50:26.958Z,4.03
2019-01-09T15:52:55.933Z,3.55
2019-01-09T15:55:26.343Z,3.58
2019-01-09T15:57:55.570Z,3.80
2019-01-09T16:00:39.320Z,3.22
2019-01-09T16:03:08.038Z,3.50
2019-01-09T16:05:37.760Z,3.45
2019-01-09T16:08:06.789Z,3.75
2019-01-09T16:10:35.568Z,4.03
2019-01-09T16:13:04.295Z,3.70
2019-01-09T16:15:33.063Z,4.10
2019-01-09T16:18:01.817Z,3.75
2019-01-09T16:20:30.567Z,3.50
2019-01-09T16:22:59.319Z,3.98
2019-01-09T16:25:28.053Z,3.80
2019-01-09T16:27:56.803Z,4.10
2019-01-09T16:33:02.440Z,4.30
2019-01-09T16:35:33.904Z,4.20
2019-01-09T16:38:02.591Z,4.70
2019-01-09T16:40:31.399Z,4.90
2019-01-09T16:43:00.260Z,4.35
2019-01-09T16:45:28.987Z,4.67
2019-01-09T16:47:57.796Z,5.10
2019-01-09T16:50:26.623Z,4.95
2019-01-09T16:52:55.379Z,4.60
2019-01-09T16:55:24.851Z,5.10
2019-01-09T16:57:53.613Z,5.30
2019-01-09T17:00:33.889Z,5.62
2019-01-09T17:03:02.643Z,5.60
2019-01-09T17:05:31.444Z,5.20
2019-01-09T17:08:00.204Z,5.30
2019-01-09T17:10:32.572Z,5.53
2019-01-09T17:12:59.352Z,5.50
2019-01-09T17:15:28.088Z,5.83
2019-01-09T17:17:56.922Z,5.28
2019-01-09T17:20:27.475Z,5.55
2019-01-09T17:22:56.603Z,5.00
2019-01-09T17:25:25.327Z,5.35
2019-01-09T17:27:54.080Z,5.70
2019-01-09T17:30:28.285Z,5.62
2019-01-09T17:32:57.136Z,5.97
2019-01-09T17:35:25.961Z,5.95
2019-01-09T17:37:54.721Z,6.12
2019-01-09T17:40:24.844Z,6.30
2019-01-09T17:42:54.425Z,6.10
2019-01-09T17:45:23.244Z,6.33
2019-01-09T17:47:52.146Z,6.05
2019-01-09T17:50:26.715Z,6.17
2019-01-09T17:52:55.817Z,6.28
2019-01-09T17:55:24.536Z,5.75
2019-01-09T17:57:53.417Z,6.45
2019-01-09T18:00:28.151Z,5.70
2019-01-09T18:02:57.043Z,6.25
2019-01-09T18:05:25.866Z,6.12
2019-01-09T18:07:54.629Z,7.10
2019-01-09T18:10:24.993Z,6.80
2019-01-09T18:12:53.965Z,6.20
2019-01-09T18:15:24.039Z,6.70
2019-01-09T18:17:53.196Z,5.95
2019-01-09T18:20:23.040Z,7.25
2019-01-09T18:22:51.881Z,7.30
2019-01-09T18:25:22.684Z,7.35
2019-01-09T18:27:51.460Z,7.33
2019-01-09T18:30:32.364Z,7.10
2019-01-09T18:33:12.323Z,7.28
2019-01-09T18:35:50.211Z,7.20
2019-01-09T18:38:24.753Z,7.40
2019-01-09T18:41:19.378Z,7.62
2019-01-09T18:44:08.858Z,7.22
2019-01-09T18:46:52.401Z,7.92
2019-01-09T18:49:42.152Z,7.97
2019-01-09T18:52:22.632Z,7.80
2019-01-09T18:54:51.391Z,7.37
2019-01-09T18:57:20.192Z,7.60
2019-01-09T18:59:48.939Z,7.20
2019-01-09T19:02:19.096Z,6.95
2019-01-09T19:04:48.216Z,6.55
2019-01-09T19:07:17.060Z,6.22
2019-01-09T19:09:45.793Z,6.42
2019-01-09T19:12:14.592Z,6.72
2019-01-09T19:14:43.283Z,6.17
2019-01-09T19:17:12.335Z,6.47
2019-01-09T19:19:41.063Z,6.75
2019-01-09T19:22:09.989Z,6.90
2019-01-09T19:24:38.732Z,6.55
2019-01-09T19:27:07.555Z,6.55
2019-01-09T19:29:36.588Z,5.92
2019-01-09T19:32:05.544Z,6.17
2019-01-09T19:34:34.267Z,6.37
2019-01-09T19:37:03.344Z,5.30
2019-01-09T19:39:32.080Z,5.55
2019-01-09T19:42:01.815Z,5.75
2019-01-09T19:44:34.653Z,5.80
2019-01-09T19:47:02.963Z,5.70
2019-01-09T19:49:31.692Z,5.63
2019-01-09T19:52:00.523Z,5.10
2019-01-09T19:54:29.251Z,5.60
2019-01-09T19:56:58.071Z,5.25
2019-01-09T19:59:26.813Z,5.30
2019-01-09T20:01:55.576Z,5.08
2019-01-09T20:04:24.299Z,5.33
2019-01-09T20:06:53.057Z,5.87
2019-01-09T20:09:23.765Z,5.05
2019-01-09T20:11:52.561Z,4.67
2019-01-09T20:14:21.301Z,5.05
2019-01-09T20:16:50.444Z,4.97
2019-01-09T20:19:19.175Z,5.08
2019-01-09T20:21:48.193Z,5.50
2019-01-09T20:24:16.929Z,5.08
2019-01-09T20:26:45.927Z,4.97
2019-01-09T20:29:14.584Z,5.42
2019-01-09T20:31:43.421Z,4.85
2019-01-09T20:34:12.169Z,4.62
2019-01-09T20:36:40.934Z,5.20
2019-01-09T20:39:10.069Z,5.17
2019-01-09T20:41:38.968Z,5.17
2019-01-09T20:44:07.748Z,4.53
2019-01-09T20:46:36.504Z,4.60
2019-01-09T20:49:05.576Z,4.83
2019-01-09T20:51:34.265Z,4.62
2019-01-09T20:54:03.013Z,4.87
2019-01-09T20:56:31.750Z,4.47
2019-01-09T20:59:00.976Z,4.58
2019-01-09T21:01:29.661Z,4.65
2019-01-09T21:03:58.428Z,4.78
2019-01-09T21:06:27.175Z,4.45
2019-01-09T21:08:59.663Z,5.03
2019-01-09T21:11:26.348Z,4.50
2019-01-09T21:13:55.164Z,4.70
2019-01-09T21:16:23.953Z,4.80
2019-01-09T21:18:53.815Z,4.90
2019-01-09T21:21:22.632Z,4.45
2019-01-09T21:23:51.360Z,4.33
2019-01-09T21:26:20.124Z,4.40
2019-01-09T21:28:48.847Z,4.35
2019-01-09T21:31:17.603Z,4.80
2019-01-09T21:33:46.338Z,4.30
2019-01-09T21:36:15.096Z,4.40
2019-01-09T21:38:46.069Z,4.75
2019-01-09T21:41:16.291Z,4.53
2019-01-09T21:43:45.024Z,4.47
2019-01-09T21:46:13.783Z,4.12
2019-01-09T21:48:42.514Z,4.30
2019-01-09T21:51:11.340Z,4.17
2019-01-09T21:53:40.084Z,4.60
2019-01-09T21:56:08.839Z,4.42
2019-01-09T21:58:37.568Z,4.35
2019-01-09T22:01:06.324Z,4.15
2019-01-09T22:03:35.051Z,3.98
2019-01-09T22:06:03.975Z,4.20
2019-01-09T22:08:32.763Z,4.35
2019-01-09T22:11:01.521Z,4.33
2019-01-09T22:13:31.745Z,4.45
2019-01-09T22:16:00.704Z,3.92
2019-01-09T22:18:29.475Z,3.90
2019-01-09T22:20:58.203Z,4.37
2019-01-09T22:23:26.959Z,4.20
2019-01-09T22:25:55.695Z,4.12
2019-01-09T22:28:24.520Z,4.28
2019-01-09T22:30:53.247Z,4.15
2019-01-09T22:33:22.006Z,4.10
2019-01-09T22:35:50.732Z,3.93
2019-01-09T22:38:19.572Z,4.33
2019-01-09T22:41:09.252Z,3.92
2019-01-09T22:43:38.086Z,3.70
2019-01-09T22:46:06.915Z,3.87
2019-01-09T22:48:36.332Z,3.95
2019-01-09T22:51:05.114Z,3.72
2019-01-09T22:53:33.867Z,3.65
2019-01-09T22:56:02.602Z,3.50
2019-01-09T22:58:31.355Z,3.50
2019-01-09T23:01:00.751Z,3.70
2019-01-09T23:03:30.107Z,3.98
2019-01-09T23:05:58.941Z,4.00
2019-01-09T23:08:27.699Z,3.80
2019-01-09T23:10:57.454Z,3.95
2019-01-09T23:13:26.523Z,3.75
2019-01-09T23:15:55.196Z,3.40
2019-01-09T23:18:23.933Z,3.72
2019-01-09T23:20:52.695Z,3.70
2019-01-09T23:23:21.535Z,4.17
2019-01-09T23:25:50.285Z,4.05
2019-01-09T23:28:18.992Z,4.05
2019-01-09T23:30:47.748Z,4.30
2019-01-09T23:33:16.978Z,4.30
2019-01-09T23:35:45.731Z,4.03
2019-01-09T23:38:14.511Z,4.17
2019-01-09T23:40:43.339Z,3.80
2019-01-09T23:43:12.447Z,4.00
2019-01-09T23:45:41.268Z,4.75
2019-01-09T23:48:12.731Z,4.70
2019-01-09T23:50:41.488Z,4.30
2019-01-09T23:53:10.308Z,4.42
2019-01-09T23:55:39.059Z,4.25
2019-01-09T23:58:07.792Z,4.45
